Time;durP1;ratioP1;P1;durP2;ratioP2;P2;SDS_P1;SDS_P2;PMS_P1;PMS_P2;Temp;Humidity;BMP_temperature;BMP_pressure;BME280_temperature;BME280_humidity;BME280_pressure;Samples;Min_cycle;Max_cycle;Signal;HPM_P1;HPM_P2
2023/01/25 00:03:26;;;;;;;;;;;;;;;-0.36;100.00;97119.22;10527111;28;3422;-73
2023/01/25 00:08:29;;;;;;;;;;;;;;;-0.39;100.00;97116.91;10525138;28;3468;-70
2023/01/25 00:13:33;;;;;;;;;;;;;;;-0.38;100.00;97121.19;10518595;28;3334;-71
2023/01/25 00:18:39;;;;;;;;;;;;;;;-0.41;100.00;97119.72;10529361;28;3263;-73
2023/01/25 00:23:42;;;;;;;;;;;;;;;-0.41;100.00;97117.09;10531730;28;3251;-73
2023/01/25 00:28:46;;;;;;;;;;;;;;;-0.36;100.00;97119.22;10526463;28;3240;-77
2023/01/25 00:33:51;;;;;;;;;;;;;;;-0.47;100.00;97123.06;10539811;28;3466;-69
2023/01/25 00:38:57;;;;;;;;;;;;;;;-0.43;100.00;97115.63;10525227;28;3234;-70
2023/01/25 00:44:00;;;;;;;;;;;;;;;-0.46;100.00;97115.94;10533788;28;3306;-70
2023/01/25 00:49:04;;;;;;;;;;;;;;;-0.47;100.00;97107.22;10533260;28;3299;-70
2023/01/25 00:54:08;;;;;;;;;;;;;;;-0.51;100.00;97108.53;10537625;28;3381;-70
2023/01/25 00:59:12;;;;;;;;;;;;;;;-0.47;100.00;97106.38;10529221;28;3338;-69
2023/01/25 01:04:16;;;;;;;;;;;;;;;-0.58;100.00;97110.22;10529202;28;3386;-70
2023/01/25 01:09:20;;;;;;;;;;;;;;;-0.62;100.00;97115.03;10523352;28;3660;-70
2023/01/25 01:14:25;;;;;;;;;;;;;;;-0.65;100.00;97120.63;10530183;28;3408;-70
2023/01/25 01:19:32;;;;;;;;;;;;;;;-0.66;100.00;97113.72;10535182;28;3474;-69
2023/01/25 01:24:35;;;;;;;;;;;;;;;-0.64;100.00;97111.72;10533002;28;3315;-70
2023/01/25 01:29:39;;;;;;;;;;;;;;;-0.64;100.00;97095.88;10530650;28;3446;-69
2023/01/25 01:34:43;;;;;;;;;;;;;;;-0.52;100.00;97100.78;10527091;28;3366;-70
2023/01/25 01:39:46;;;;;;;;;;;;;;;-0.55;100.00;97097.50;10524528;28;3311;-70
2023/01/25 01:44:50;;;;;;;;;;;;;;;-0.61;100.00;97090.25;10513986;28;3239;-70
2023/01/25 01:49:54;;;;;;;;;;;;;;;-0.59;100.00;97092.72;10530980;28;3784;-70
2023/01/25 01:54:58;;;;;;;;;;;;;;;-0.61;100.00;97092.09;10541702;28;3314;-71
2023/01/25 02:00:01;;;;;;;;;;;;;;;-0.72;100.00;97092.44;10528843;28;3327;-69
2023/01/25 02:05:04;;;;;;;;;;;;;;;-0.64;100.00;97097.69;10524484;28;3360;-70
2023/01/25 02:10:08;;;;;;;;;;;;;;;-0.64;100.00;97097.69;10529021;28;3374;-70
2023/01/25 02:15:11;;;;;;;;;;;;;;;-0.64;100.00;97087.94;10522281;28;3268;-69
2023/01/25 02:20:15;;;;;;;;;;;;;;;-0.69;100.00;97084.22;10529419;28;3397;-70
2023/01/25 02:25:19;;;;;;;;;;;;;;;-0.68;100.00;97094.59;10531024;28;3544;-71
2023/01/25 02:30:23;;;;;;;;;;;;;;;-0.66;100.00;97084.66;10517641;28;3474;-70
2023/01/25 02:35:27;;;;;;;;;;;;;;;-0.63;100.00;97086.97;10515180;28;3414;-74
2023/01/25 02:40:30;;;;;;;;;;;;;;;-0.59;100.00;97088.25;10525251;28;3208;-71
2023/01/25 02:45:33;;;;;;;;;;;;;;;-0.60;100.00;97080.53;10528748;28;3569;-77
2023/01/25 02:50:36;;;;;;;;;;;;;;;-0.63;100.00;97081.69;10530224;28;3338;-76
2023/01/25 02:55:40;;;;;;;;;;;;;;;-0.58;100.00;97071.41;10534728;28;3347;-71
2023/01/25 03:00:43;;;;;;;;;;;;;;;-0.51;100.00;97073.38;10525766;28;3263;-68
2023/01/25 03:05:46;;;;;;;;;;;;;;;-0.58;100.00;97079.34;10518009;28;3263;-70
2023/01/25 03:10:50;;;;;;;;;;;;;;;-0.49;100.00;97074.88;10517388;28;3298;-69
2023/01/25 03:15:53;;;;;;;;;;;;;;;-0.60;100.00;97060.22;10536852;28;3287;-70
2023/01/25 03:20:56;;;;;;;;;;;;;;;-0.55;100.00;97057.88;10522546;28;3431;-68
2023/01/25 03:26:00;;;;;;;;;;;;;;;-0.69;100.00;97055.97;10522265;28;3431;-70
2023/01/25 03:31:04;;;;;;;;;;;;;;;-0.73;100.00;97059.94;10512962;28;3327;-69
2023/01/25 03:36:09;;;;;;;;;;;;;;;-0.74;100.00;97063.59;10521987;28;3344;-70
2023/01/25 03:41:13;;;;;;;;;;;;;;;-0.75;100.00;97061.94;10519706;28;3349;-71
2023/01/25 03:46:18;;;;;;;;;;;;;;;-0.68;100.00;97054.97;10518888;28;3338;-70
2023/01/25 03:51:21;;;;;;;;;;;;;;;-0.67;100.00;97048.69;10527171;28;3310;-71
2023/01/25 03:56:24;;;;;;;;;;;;;;;-0.61;100.00;97048.00;10525441;28;3290;-77
2023/01/25 04:01:29;;;;;;;;;;;;;;;-0.63;100.00;97049.19;10523446;28;3526;-75
2023/01/25 04:06:32;;;;;;;;;;;;;;;-0.76;100.00;97055.03;10524365;28;3374;-70
2023/01/25 04:11:35;;;;;;;;;;;;;;;-0.79;100.00;97052.72;10519451;28;3292;-68
2023/01/25 04:16:39;;;;;;;;;;;;;;;-0.84;100.00;97049.75;10516181;28;3314;-71
2023/01/25 04:21:45;;;;;;;;;;;;;;;-0.86;100.00;97043.81;10518962;28;3320;-69
2023/01/25 04:26:50;;;;;;;;;;;;;;;-0.83;100.00;97033.75;10519706;28;3368;-70
2023/01/25 04:31:54;;;;;;;;;;;;;;;-0.86;100.00;97035.91;10518801;28;3275;-70
2023/01/25 04:36:57;;;;;;;;;;;;;;;-0.84;100.00;97039.19;10518183;28;3287;-71
2023/01/25 04:42:00;;;;;;;;;;;;;;;-0.81;100.00;97028.31;10521209;28;3374;-70
2023/01/25 04:47:04;;;;;;;;;;;;;;;-0.71;100.00;97020.16;10517469;28;3322;-75
2023/01/25 04:52:08;;;;;;;;;;;;;;;-0.90;100.00;97011.66;10526231;28;3319;-73
2023/01/25 04:57:12;;;;;;;;;;;;;;;-0.84;100.00;97007.50;10516680;28;3375;-70
2023/01/25 05:02:15;;;;;;;;;;;;;;;-0.83;100.00;97003.88;10527932;28;3688;-70
2023/01/25 05:07:18;;;;;;;;;;;;;;;-0.78;100.00;96998.91;10528211;28;3395;-70
2023/01/25 05:12:22;;;;;;;;;;;;;;;-0.71;100.00;97006.97;10525035;28;3259;-69
2023/01/25 05:17:25;;;;;;;;;;;;;;;-0.82;100.00;96992.34;10532639;28;3375;-70
2023/01/25 05:22:30;;;;;;;;;;;;;;;-0.78;100.00;96988.34;10530201;28;3362;-70
2023/01/25 05:27:36;;;;;;;;;;;;;;;-0.79;100.00;96986.69;10535197;28;3386;-72
2023/01/25 05:32:39;;;;;;;;;;;;;;;-0.77;100.00;96989.16;10527874;28;3329;-70
2023/01/25 05:37:43;;;;;;;;;;;;;;;-0.80;100.00;96995.63;10520841;28;3302;-70
2023/01/25 05:42:46;;;;;;;;;;;;;;;-0.85;100.00;96997.94;10527563;28;3327;-69
2023/01/25 05:47:50;;;;;;;;;;;;;;;-0.78;100.00;96990.97;10520118;28;3315;-69
2023/01/25 05:52:54;;;;;;;;;;;;;;;-0.76;100.00;96994.28;10532336;28;3259;-70
2023/01/25 05:57:57;;;;;;;;;;;;;;;-0.85;100.00;97004.03;10528896;28;3407;-69
2023/01/25 06:03:00;;;;;;;;;;;;;;;-0.87;100.00;96987.56;10521807;28;3295;-69
2023/01/25 06:08:04;;;;;;;;;;;;;;;-0.88;100.00;96987.75;10519603;28;3335;-69
2023/01/25 06:13:08;;;;;;;;;;;;;;;-0.82;100.00;96985.25;10526055;28;3361;-69
2023/01/25 06:18:11;;;;;;;;;;;;;;;-0.88;100.00;96983.28;10525651;28;3279;-71
2023/01/25 06:23:14;;;;;;;;;;;;;;;-0.83;100.00;96969.56;10524175;28;3353;-68
2023/01/25 06:28:18;;;;;;;;;;;;;;;-0.69;100.00;96968.00;10517685;28;3298;-72
2023/01/25 06:33:21;;;;;;;;;;;;;;;-0.62;100.00;96967.16;10521025;28;3407;-70
2023/01/25 06:38:25;;;;;;;;;;;;;;;-0.84;100.00;96952.06;10522244;28;3671;-70
2023/01/25 06:43:28;;;;;;;;;;;;;;;-0.78;100.00;96961.13;10518672;28;3417;-71
2023/01/25 06:48:32;;;;;;;;;;;;;;;-0.68;100.00;96962.56;10533747;28;3283;-73
2023/01/25 06:53:35;;;;;;;;;;;;;;;-0.63;100.00;96949.66;10526010;28;3302;-73
2023/01/25 06:58:38;;;;;;;;;;;;;;;-0.60;100.00;96941.38;10526791;28;3280;-73
2023/01/25 07:03:42;;;;;;;;;;;;;;;-0.58;100.00;96934.09;10523448;28;3370;-75
2023/01/25 07:08:45;;;;;;;;;;;;;;;-0.75;100.00;96929.09;10529368;28;3306;-74
2023/01/25 07:13:51;;;;;;;;;;;;;;;-0.75;100.00;96942.31;10522806;28;3396;-73
2023/01/25 07:18:54;;;;;;;;;;;;;;;-0.93;100.00;96938.09;10527627;28;3338;-75
2023/01/25 07:24:02;;;;;;;;;;;;;;;-0.83;100.00;96928.16;10530066;28;3326;-74
2023/01/25 07:29:05;;;;;;;;;;;;;;;-0.94;100.00;96931.19;10523155;28;3287;-75
2023/01/25 07:34:09;;;;;;;;;;;;;;;-0.97;100.00;96928.06;10536981;28;3278;-72
2023/01/25 07:39:26;;;;;;;;;;;;;;;-1.00;100.00;96926.59;10529506;28;3277;-72
2023/01/25 07:44:49;;;;;;;;;;;;;;;-0.88;100.00;96938.41;10531612;28;3282;-71
2023/01/25 07:49:53;;;;;;;;;;;;;;;-0.82;100.00;96934.25;10532682;28;3326;-71
2023/01/25 07:54:57;;;;;;;;;;;;;;;-0.72;100.00;96945.41;10525822;28;3302;-72
2023/01/25 08:00:05;;;;;;;;;;;;;;;-0.82;100.00;96939.53;10536120;28;3417;-71
2023/01/25 08:05:18;;;;;;;;;;;;;;;-0.90;100.00;96944.84;10534427;28;3383;-72
2023/01/25 08:10:21;;;;;;;;;;;;;;;-1.10;100.00;96947.09;10530068;28;3494;-72
2023/01/25 08:15:25;;;;;;;;;;;;;;;-1.04;100.00;96950.84;10528758;28;3366;-71
2023/01/25 08:20:28;;;;;;;;;;;;;;;-0.92;100.00;96945.03;10531044;28;3354;-71
2023/01/25 08:25:33;;;;;;;;;;;;;;;-0.96;100.00;96941.06;10527561;28;3338;-71
2023/01/25 08:30:36;;;;;;;;;;;;;;;-1.02;100.00;96939.13;10526163;28;3417;-70
2023/01/25 08:35:54;;;;;;;;;;;;;;;-0.79;100.00;96931.25;10531281;28;3367;-72
2023/01/25 08:40:57;;;;;;;;;;;;;;;-0.67;100.00;96919.31;10528781;28;3279;-70
2023/01/25 08:46:01;;;;;;;;;;;;;;;-0.67;100.00;96924.59;10522526;28;3641;-74
2023/01/25 08:51:05;;;;;;;;;;;;;;;-0.62;100.00;96914.31;10524849;28;3259;-71
2023/01/25 08:56:09;;;;;;;;;;;;;;;-0.83;100.00;96924.66;10533232;28;3258;-71
2023/01/25 09:01:13;;;;;;;;;;;;;;;-0.82;100.00;96913.16;10539667;28;3391;-71
2023/01/25 09:06:27;;;;;;;;;;;;;;;-0.77;100.00;96910.78;10546013;27;3578;-72
2023/01/25 09:11:30;;;;;;;;;;;;;;;-0.75;100.00;96897.41;10528465;28;3427;-72
2023/01/25 09:16:35;;;;;;;;;;;;;;;-0.84;100.00;96894.00;10535386;28;1923;-72
2023/01/25 09:21:42;;;;;;;;;;;;;;;-0.98;100.00;96897.38;10540895;27;3401;-71
2023/01/25 09:37:24;;;;;;;;;;;;;;;-0.69;100.00;96902.81;10538487;28;3330;-72
2023/01/25 09:42:28;;;;;;;;;;;;;;;-0.56;100.00;96896.97;10539161;28;3329;-72
2023/01/25 09:47:32;;;;;;;;;;;;;;;-0.53;100.00;96890.50;10543288;28;3326;-73
2023/01/25 09:52:38;;;;;;;;;;;;;;;-0.55;100.00;96896.78;10531439;28;3291;-72
2023/01/25 09:57:42;;;;;;;;;;;;;;;-0.64;100.00;96889.88;10535100;28;3215;-73
2023/01/25 10:02:53;;;;;;;;;;;;;;;-0.82;100.00;96886.75;10532202;28;3674;-71
2023/01/25 10:08:04;;;;;;;;;;;;;;;-0.75;100.00;96869.19;10531029;28;3280;-69
2023/01/25 10:13:09;;;;;;;;;;;;;;;-0.94;100.00;96877.56;10543630;28;3282;-71
2023/01/25 10:18:12;;;;;;;;;;;;;;;-0.91;100.00;96874.56;10535271;28;3352;-70
2023/01/25 10:23:16;;;;;;;;;;;;;;;-0.94;100.00;96880.22;10529194;28;3291;-72
2023/01/25 10:28:19;;;;;;;;;;;;;;;-0.87;100.00;96863.50;10533292;28;3224;-74
2023/01/25 10:33:22;;;;;;;;;;;;;;;-0.75;100.00;96856.00;10538244;28;3287;-73
2023/01/25 10:38:26;;;;;;;;;;;;;;;-0.81;100.00;96854.06;10522856;28;3474;-71
2023/01/25 10:43:29;;;;;;;;;;;;;;;-0.78;100.00;96842.31;10526325;28;3306;-72
2023/01/25 10:48:33;;;;;;;;;;;;;;;-0.75;100.00;96840.16;10528943;28;3271;-73
2023/01/25 10:53:38;;;;;;;;;;;;;;;-0.72;100.00;96834.50;10549187;27;3266;-73
2023/01/25 10:58:55;;;;;;;;;;;;;;;-0.69;100.00;96823.59;10534807;28;3449;-73
2023/01/25 11:03:58;;;;;;;;;;;;;;;-0.61;100.00;96826.19;10532073;28;3251;-75
2023/01/25 11:09:02;;;;;;;;;;;;;;;-0.73;100.00;96811.75;10529363;28;3371;-72
2023/01/25 11:14:06;;;;;;;;;;;;;;;-0.78;100.00;96798.25;10528417;28;3370;-72
2023/01/25 11:19:14;;;;;;;;;;;;;;;-0.91;100.00;96798.03;10524024;28;3086;-73
2023/01/25 11:24:21;;;;;;;;;;;;;;;-0.79;100.00;96786.06;10518894;28;3344;-75
2023/01/25 11:29:25;;;;;;;;;;;;;;;-0.78;100.00;96787.69;10527085;28;3357;-74
2023/01/25 11:34:30;;;;;;;;;;;;;;;-0.86;100.00;96769.28;10538639;27;3291;-72
2023/01/25 11:39:34;;;;;;;;;;;;;;;-0.81;100.00;96756.38;10529668;28;3362;-71
2023/01/25 11:44:38;;;;;;;;;;;;;;;-0.83;100.00;96751.28;10521625;28;3347;-73
2023/01/25 11:49:41;;;;;;;;;;;;;;;-0.49;100.00;96747.34;10526993;28;3065;-72
2023/01/25 11:54:45;;;;;;;;;;;;;;;-0.64;100.00;96726.16;10544000;27;3697;-78
2023/01/25 11:59:50;;;;;;;;;;;;;;;-0.48;100.00;96719.91;10527495;28;3322;-77
2023/01/25 12:04:54;;;;;;;;;;;;;;;-0.69;100.00;96714.53;10525453;28;3475;-75
2023/01/25 12:09:57;;;;;;;;;;;;;;;-0.61;100.00;96703.88;10516395;28;3472;-73
2023/01/25 12:15:00;;;;;;;;;;;;;;;-0.67;100.00;96691.41;10533310;28;3129;-72
2023/01/25 12:20:06;;;;;;;;;;;;;;;-0.95;100.00;96680.63;10524594;28;3188;-70
2023/01/25 12:25:10;;;;;;;;;;;;;;;-0.85;100.00;96670.63;10532235;28;3072;-75
2023/01/25 12:30:13;;;;;;;;;;;;;;;-0.66;100.00;96672.72;10533276;28;3100;-71
2023/01/25 12:35:16;;;;;;;;;;;;;;;-0.62;100.00;96660.81;10530618;28;3018;-72
2023/01/25 12:40:20;;;;;;;;;;;;;;;-0.53;100.00;96652.78;10529787;28;3042;-73
2023/01/25 12:45:24;;;;;;;;;;;;;;;-0.82;100.00;96654.44;10533822;28;2978;-74
2023/01/25 12:50:27;;;;;;;;;;;;;;;-0.66;100.00;96650.78;10537568;28;3109;-72
2023/01/25 12:55:31;;;;;;;;;;;;;;;-0.75;100.00;96638.69;10539431;28;3049;-71
2023/01/25 13:00:34;;;;;;;;;;;;;;;-0.79;100.00;96638.22;10537024;27;3051;-70
2023/01/25 13:05:38;;;;;;;;;;;;;;;-0.86;100.00;96640.75;10531091;28;3030;-70
2023/01/25 13:10:41;;;;;;;;;;;;;;;-0.94;100.00;96630.28;10537912;28;3057;-72
2023/01/25 13:15:48;;;;;;;;;;;;;;;-0.93;100.00;96625.84;10532623;28;3084;-72
2023/01/25 13:20:51;;;;;;;;;;;;;;;-0.83;100.00;96621.94;10535233;28;2895;-71
2023/01/25 13:25:55;;;;;;;;;;;;;;;-0.71;100.00;96621.47;10543005;28;3159;-72
2023/01/25 13:30:59;;;;;;;;;;;;;;;-0.74;100.00;96614.75;10546373;28;3192;-71
2023/01/25 13:36:03;;;;;;;;;;;;;;;-0.79;100.00;96617.09;10535334;28;2954;-71
2023/01/25 13:41:11;;;;;;;;;;;;;;;-0.97;100.00;96614.00;10533494;28;1914;-73
2023/01/25 13:46:14;;;;;;;;;;;;;;;-0.92;100.00;96606.34;10531953;28;3057;-74
2023/01/25 13:51:19;;;;;;;;;;;;;;;-1.03;100.00;96601.50;10527375;28;3040;-71
2023/01/25 13:56:22;;;;;;;;;;;0.00;99.90;;;-0.91;100.00;96594.78;10517952;28;2990;-70
2023/01/25 14:01:28;;;;;;;;;;;0.00;99.90;;;-1.04;100.00;96591.97;10521742;28;2978;-77
2023/01/25 14:06:31;;;;;;;;;;;0.20;99.90;;;-1.03;100.00;96591.78;10529729;28;3045;-71
2023/01/25 14:16:55;;;;;;;;;;;0.20;99.90;;;-1.13;100.00;96585.97;10529475;28;2934;-71
2023/01/25 14:21:59;;;;;;;;;;;0.20;99.90;;;-1.18;100.00;96586.50;10553152;28;3034;-70
2023/01/25 14:27:02;;;;;;;;;;;-0.10;99.90;;;-1.15;100.00;96590.56;10527735;28;2965;-72
2023/01/25 14:32:05;;;;;;;;;;;-0.10;99.90;;;-1.18;100.00;96575.94;10499465;28;3106;-72
2023/01/25 14:37:10;;;;;;;;;;;-0.30;99.90;;;-1.06;100.00;96575.50;10539396;28;2996;-73
2023/01/25 14:42:15;;;;;;;;;;;-1.90;99.90;;;-0.98;100.00;96554.28;10535814;28;3068;-73
2023/01/25 14:47:18;;;;;;;;;;;0.00;99.90;;;-1.11;100.00;96557.56;10522660;28;3248;-77
2023/01/25 14:52:21;;;;;;;;;;;0.10;99.90;;;-1.21;100.00;96563.13;10530511;28;2987;-72
2023/01/25 14:57:24;;;;;;;;;;;-0.20;99.90;;;-1.22;100.00;96564.09;10531847;28;3030;-74
2023/01/25 15:02:27;;;;;;;;;;;0.00;99.90;;;-1.23;100.00;96551.91;10530271;28;3093;-72
2023/01/25 15:07:31;;;;;;;;;;;-0.20;99.90;;;-1.10;100.00;96557.38;10537012;28;3040;-72
2023/01/25 15:17:51;;;;;;;;;;;0.00;99.90;;;-1.11;100.00;96547.00;10536018;28;3057;-76
2023/01/25 15:22:56;;;;;;;;;;;0.00;99.90;;;-0.98;100.00;96527.91;10526506;28;3045;-71
2023/01/25 15:27:59;;;;;;;;;;;0.00;99.90;;;-0.99;100.00;96521.81;10524472;28;3046;-75
2023/01/25 15:33:02;;;;;;;;;;;0.10;99.90;;;-1.00;100.00;96522.00;10526403;28;3042;-72
2023/01/25 15:38:05;;;;;;;;;;;0.10;99.90;;;-0.92;100.00;96522.72;10531269;28;3184;-72
2023/01/25 15:43:07;;;;;;;;;;;0.20;99.90;;;-1.12;100.00;96521.63;10527603;28;3145;-73
2023/01/25 15:48:13;;;;;;;;;;;;;;;-1.15;100.00;96517.53;10508093;28;3097;-71
2023/01/25 15:53:17;;;;;;;;;;;;;;;-1.04;100.00;96515.44;10523254;28;3054;-70
2023/01/25 15:58:23;;;;;;;;;;;;;;;-1.10;100.00;96511.72;10532027;28;2986;-72
2023/01/25 16:03:28;;;;;;;;;;;;;;;-1.06;100.00;96510.34;10524371;28;3168;-72
2023/01/25 16:08:32;;;;;;;;;;;;;;;-1.19;100.00;96505.72;10522313;28;3069;-70
2023/01/25 16:13:40;;;;;;;;;;;;;;;-1.21;100.00;96510.38;10526324;28;3165;-71
2023/01/25 16:18:46;;;;;;;;;;;;;;;-1.23;100.00;96500.97;10528520;28;3018;-74
2023/01/25 16:23:53;;;;;;;;;;;;;;;-1.12;100.00;96493.44;10534762;28;3098;-73
2023/01/25 16:28:56;;;;;;;;;;;;;;;-1.12;100.00;96489.97;10531433;28;2983;-75
2023/01/25 16:34:00;;;;;;;;;;;;;;;-1.20;100.00;96493.53;10526650;28;3090;-75
2023/01/25 16:39:08;;;;;;;;;;;;;;;-1.07;100.00;96478.88;10537273;28;3177;-70
2023/01/25 16:44:12;;;;;;;;;;;;;;;-1.11;100.00;96470.50;10520701;28;3060;-71
2023/01/25 16:49:14;;;;;;;;;;;-0.10;99.90;;;-1.09;100.00;96473.75;10523789;28;3072;-73
2023/01/25 16:54:20;;;;;;;;;;;;;;;-1.08;100.00;96475.44;10510279;28;2946;-75
2023/01/25 16:59:24;;;;;;;;;;;;;;;-1.09;100.00;96471.94;10535257;28;3105;-72
2023/01/25 17:04:27;;;;;;;;;;;;;;;-1.06;100.00;96462.84;10529813;28;3007;-73
2023/01/25 17:09:31;;;;;;;;;;;;;;;-1.18;100.00;96441.41;10530527;28;3058;-73
2023/01/25 17:14:35;;;;;;;;;;;;;;;-1.05;100.00;96447.84;10532269;28;3032;-73
2023/01/25 17:19:38;;;;;;;;;;;;;;;-1.24;100.00;96438.66;10533673;28;3360;-72
2023/01/25 17:29:15;;;;;;;;;;;;;;;-1.18;100.00;96430.03;10508796;27;3017;-72
2023/01/25 17:34:18;;;;;;;;;;;;;;;-1.25;100.00;96426.50;10450376;28;11537;-71
2023/01/25 17:40:12;;;;;;;;;;;;;;;-1.13;100.00;96425.03;10507334;27;2926;-72
2023/01/25 17:45:14;;;;;;;;;;;;;;;-1.16;100.00;96412.19;10474632;28;3050;-73
2023/01/25 17:50:17;;;;;;;;;;;;;;;-1.22;100.00;96407.63;10474677;28;3013;-72
2023/01/25 17:55:19;;;;;;;;;;;;;;;-1.15;100.00;96409.34;10478079;28;3066;-72
2023/01/25 18:00:21;;;;;;;;;;;;;;;-1.28;100.00;96395.19;10479608;28;3051;-75
2023/01/25 18:05:24;;;;;;;;;;;;;;;-1.28;100.00;96398.63;10476963;28;3140;-74
2023/01/25 18:10:27;;;;;;;;;;;;;;;-1.17;100.00;96392.09;10476387;28;3096;-72
2023/01/25 18:15:29;;;;;;;;;;;;;;;-1.15;100.00;96382.97;10473792;28;3069;-74
2023/01/25 18:20:50;;;;;;;;;;;;;;;-1.17;100.00;96379.72;10476501;28;3045;-73
2023/01/25 18:25:52;;;;;;;;;;;;;;;-1.17;100.00;96376.25;10474053;28;2966;-76
2023/01/25 18:30:57;;;;;;;;;;;;;;;-1.06;100.00;96372.31;10475495;28;3075;-77
2023/01/25 18:36:02;;;;;;;;;;;;;;;-1.12;100.00;96379.16;10477385;28;3026;-75
2023/01/25 18:41:06;;;;;;;;;;;;;;;-1.25;100.00;96368.47;10472221;28;3018;-73
2023/01/25 18:46:10;;;;;;;;;;;;;;;-1.19;100.00;96359.81;10478574;28;3030;-74
2023/01/25 18:51:33;;;;;;;;;;;;;;;-1.02;100.00;96353.28;10451403;28;3066;-73
2023/01/25 18:56:46;;;;;;;;;;;;;;;-1.14;100.00;96352.16;10445536;28;3162;-72
2023/01/25 19:01:48;;;;;;;;;;;;;;;-1.38;100.00;96348.00;10450771;28;3011;-74
2023/01/25 19:06:55;;;;;;;;;;;;;;;-1.31;100.00;96343.63;10441418;28;2990;-73
2023/01/25 19:11:57;;;;;;;;;;;;;;;-1.00;100.00;96334.63;10443441;28;3153;-73
2023/01/25 19:17:00;;;;;;;;;;;;;;;-0.90;100.00;96335.13;10447034;28;3103;-71
2023/01/25 19:22:02;;;;;;;;;;;;;;;-1.01;100.00;96312.72;10448194;28;3059;-74
2023/01/25 19:27:04;;;;;;;;;;;;;;;-1.36;100.00;96309.91;10450279;28;3067;-75
2023/01/25 19:32:09;;;;;;;;;;;;;;;-1.43;100.00;96302.91;10450080;28;3375;-73
2023/01/25 19:37:11;;;;;;;;;;;;;;;-1.42;100.00;96302.72;10446203;28;3165;-74
2023/01/25 19:42:14;;;;;;;;;;;;;;;-1.23;100.00;96298.66;10446573;28;3111;-72
2023/01/25 19:47:19;;;;;;;;;;;;;;;-1.17;100.00;96292.66;10452077;28;3045;-74
2023/01/25 19:52:22;;;;;;;;;;;;;;;-1.27;100.00;96292.16;10478816;28;3165;-74
2023/01/25 19:57:25;;;;;;;;;;;;;;;-1.17;100.00;96286.56;10449325;28;3045;-72
2023/01/25 20:02:27;;;;;;;;;;;;;;;-1.23;100.00;96271.47;10449894;28;3108;-71
2023/01/25 20:07:30;;;;;;;;;;;;;;;-1.28;100.00;96269.41;10443250;28;3043;-72
2023/01/25 20:12:32;;;;;;;;;;;;;;;-1.43;100.00;96271.28;10437964;28;3073;-71
2023/01/25 20:17:35;;;;;;;;;;;;;;;-1.49;100.00;96266.75;10444206;28;2922;-72
2023/01/25 20:22:38;;;;;;;;;;;;;;;-1.42;100.00;96257.91;10443517;28;3037;-72
2023/01/25 20:27:40;;;;;;;;;;;;;;;-1.47;100.00;96251.53;10437837;28;3061;-76
2023/01/25 20:32:43;;;;;;;;;;;;;;;-1.37;100.00;96244.16;10441299;28;3002;-71
2023/01/25 20:37:45;;;;;;;;;;;;;;;-1.23;100.00;96251.19;10441441;28;3077;-73
2023/01/25 20:42:50;;;;;;;;;;;;;;;-1.10;100.00;96243.41;10456238;28;3053;-71
2023/01/25 20:47:53;;;;;;;;;;;;;;;-1.02;100.00;96233.72;10440612;28;3042;-71
2023/01/25 20:52:56;;;;;;;;;;;;;;;-0.98;100.00;96233.16;10444304;28;3129;-76
2023/01/25 20:57:58;;;;;;;;;;;;;;;-0.92;100.00;96223.66;10445792;28;3026;-78
2023/01/25 21:03:01;;;;;;;;;;;;;;;-0.90;100.00;96219.00;10442290;28;3006;-75
2023/01/25 21:08:04;;;;;;;;;;;;;;;-0.87;100.00;96218.63;10443718;28;3041;-76
2023/01/25 21:13:06;;;;;;;;;;;;;;;-0.94;100.00;96204.56;10441172;28;3042;-72
2023/01/25 21:18:09;;;;;;;;;;;;;;;-0.88;100.00;96212.53;10441748;28;3057;-74
2023/01/25 21:23:11;;;;;;;;;;;;;;;-1.14;100.00;96207.88;10437463;28;3029;-70
2023/01/25 21:28:14;;;;;;;;;;;;;;;-1.19;100.00;96209.44;10436650;28;3025;-73
2023/01/25 21:33:16;;;;;;;;;;;;;;;-1.20;100.00;96194.63;10441970;28;3014;-73
2023/01/25 21:38:18;;;;;;;;;;;;;;;-1.29;100.00;96187.81;10440338;28;3136;-70
2023/01/25 21:43:21;;;;;;;;;;;;;;;-1.30;100.00;96192.28;10433059;28;3027;-73
2023/01/25 21:53:40;;;;;;;;;;;;;;;-1.42;100.00;96185.88;10441232;28;3223;-72
2023/01/25 21:58:42;;;;;;;;;;;;;;;-1.31;100.00;96174.84;10437255;28;3021;-72
2023/01/25 22:03:45;;;;;;;;;;;;;;;-1.11;100.00;96175.81;10441427;28;3158;-71
2023/01/25 22:08:47;;;;;;;;;;;;;;;-0.98;100.00;96171.66;10435138;28;2978;-72
2023/01/25 22:13:50;;;;;;;;;;;;;;;-0.91;100.00;96157.50;10447267;28;3030;-74
2023/01/25 22:18:52;;;;;;;;;;;;;;;-1.22;100.00;96155.22;10439030;28;3053;-71
2023/01/25 22:23:54;;;;;;;;;;;;;;;-1.49;100.00;96151.53;10435954;28;2993;-71
2023/01/25 22:28:57;;;;;;;;;;;;;;;-1.40;100.00;96147.78;10444188;28;3021;-74
2023/01/25 22:33:59;;;;;;;;;;;;;;;-1.55;100.00;96151.47;10444679;28;3056;-71
2023/01/25 22:39:02;;;;;;;;;;;;;;;-1.59;100.00;96153.69;10446844;28;3093;-71
2023/01/25 22:44:04;;;;;;;;;;;;;;;-1.76;100.00;96149.66;10439634;28;3061;-71
2023/01/25 22:49:06;;;;;;;;;;;;;;;-1.76;100.00;96139.94;10444436;28;2974;-71
2023/01/25 22:54:09;;;;;;;;;;;;;;;-1.78;100.00;96139.31;10443127;28;2987;-74
2023/01/25 22:59:13;;;;;;;;;;;;;;;-1.52;100.00;96120.31;10445353;28;3081;-72
2023/01/25 23:04:16;;;;;;;;;;;;;;;-1.50;100.00;96117.47;10444185;28;3037;-73
2023/01/25 23:09:18;;;;;;;;;;;;;;;-1.67;100.00;96112.44;10448012;28;3033;-71
2023/01/25 23:19:40;;;;;;;;;;;;;;;-1.87;100.00;96090.34;10447282;28;3113;-70
2023/01/25 23:24:43;;;;;;;;;;;;;;;-1.61;100.00;96088.97;10446880;28;3029;-70
2023/01/25 23:29:45;;;;;;;;;;;;;;;-1.63;100.00;96082.06;10450412;28;2950;-70
2023/01/25 23:34:51;;;;;;;;;;;;;;;-1.49;100.00;96087.44;10449815;28;2947;-71
2023/01/25 23:39:54;;;;;;;;;;;;;;;-1.65;100.00;96078.00;10443794;28;3002;-72
2023/01/25 23:44:58;;;;;;;;;;;;;;;-1.97;100.00;96082.78;10447642;28;3497;-71
2023/01/25 23:50:00;;;;;;;;;;;;;;;-1.81;100.00;96073.78;10447690;28;3061;-71
2023/01/25 23:55:03;;;;;;;;;;;;;;;-1.64;100.00;96066.47;10444916;28;3003;-71
